createdAt,value
2023-05-11T00:01:49.036Z,2.80
2023-05-11T00:04:55.496Z,2.90
2023-05-11T00:08:01.661Z,2.90
2023-05-11T00:11:10.404Z,3.10
2023-05-11T00:14:16.740Z,2.90
2023-05-11T00:17:22.845Z,2.80
2023-05-11T00:20:29.049Z,2.70
2023-05-11T00:23:35.085Z,2.90
2023-05-11T00:26:41.328Z,3.00
2023-05-11T00:29:47.438Z,2.90
2023-05-11T00:32:54.302Z,2.80
2023-05-11T00:36:00.431Z,3.00
2023-05-11T00:39:06.972Z,3.00
2023-05-11T00:42:13.543Z,3.10
2023-05-11T00:45:20.241Z,3.00
2023-05-11T00:48:26.232Z,2.80
2023-05-11T00:51:33.439Z,2.80
2023-05-11T00:54:40.274Z,2.90
2023-05-11T00:57:47.032Z,2.90
2023-05-11T01:00:53.224Z,2.90
2023-05-11T01:03:59.592Z,3.00
2023-05-11T01:07:08.303Z,3.00
2023-05-11T01:10:19.463Z,2.90
2023-05-11T01:13:31.756Z,3.00
2023-05-11T01:16:39.651Z,3.00
2023-05-11T01:19:48.536Z,3.20
2023-05-11T01:23:18.423Z,2.80
2023-05-11T01:30:12.962Z,3.30
2023-05-11T01:33:20.832Z,3.30
2023-05-11T01:36:31.936Z,3.10
2023-05-11T01:39:39.982Z,3.30
2023-05-11T01:42:49.377Z,3.00
2023-05-11T01:45:57.213Z,3.10
2023-05-11T01:49:05.357Z,3.00
2023-05-11T01:52:13.800Z,3.20
2023-05-11T01:55:22.968Z,2.70
2023-05-11T01:58:30.054Z,3.30
2023-05-11T02:01:38.189Z,3.00
2023-05-11T02:04:44.910Z,3.10
2023-05-11T02:07:52.764Z,3.20
2023-05-11T02:10:59.267Z,3.10
2023-05-11T02:14:06.352Z,3.10
2023-05-11T02:17:12.826Z,3.10
2023-05-11T02:20:19.718Z,3.10
2023-05-11T02:23:27.781Z,2.90
2023-05-11T02:26:34.203Z,3.20
2023-05-11T02:29:40.243Z,2.80
2023-05-11T02:32:53.190Z,3.10
2023-05-11T02:36:01.025Z,3.30
2023-05-11T02:39:12.704Z,3.20
2023-05-11T02:42:22.766Z,3.20
2023-05-11T02:45:32.877Z,3.00
2023-05-11T02:48:42.940Z,3.10
2023-05-11T02:51:51.047Z,3.10
2023-05-11T02:54:58.450Z,3.20
2023-05-11T02:58:04.976Z,3.50
2023-05-11T03:01:12.235Z,3.00
2023-05-11T03:04:18.626Z,3.00
2023-05-11T03:07:24.755Z,3.10
2023-05-11T03:10:31.662Z,3.10
2023-05-11T03:13:37.746Z,3.40
2023-05-11T03:16:44.760Z,3.20
2023-05-11T03:19:51.227Z,3.20
2023-05-11T03:22:59.155Z,3.60
2023-05-11T03:26:05.872Z,3.20
2023-05-11T03:29:13.025Z,3.30
2023-05-11T03:32:19.133Z,3.10
2023-05-11T03:35:28.728Z,3.20
2023-05-11T03:38:35.341Z,3.40
2023-05-11T03:41:42.165Z,3.20
2023-05-11T03:44:49.025Z,3.30
2023-05-11T03:47:57.184Z,3.40
2023-05-11T03:51:03.442Z,3.30
2023-05-11T03:54:10.192Z,3.20
2023-05-11T03:57:16.694Z,3.20
2023-05-11T04:00:23.023Z,3.10
2023-05-11T04:03:29.209Z,3.40
2023-05-11T04:06:35.371Z,3.20
2023-05-11T04:09:41.428Z,3.20
2023-05-11T04:12:47.816Z,3.40
2023-05-11T04:15:54.571Z,3.00
2023-05-11T04:19:01.478Z,3.00
2023-05-11T04:22:07.636Z,3.20
2023-05-11T04:25:13.955Z,3.10
2023-05-11T04:28:19.959Z,2.90
2023-05-11T04:31:26.308Z,2.90
2023-05-11T04:34:32.619Z,3.10
2023-05-11T04:37:39.023Z,3.20
2023-05-11T04:40:45.211Z,3.10
2023-05-11T04:43:51.565Z,3.20
2023-05-11T04:46:59.037Z,3.00
2023-05-11T04:50:05.914Z,3.40
2023-05-11T04:53:11.938Z,3.30
2023-05-11T04:56:18.389Z,3.00
2023-05-11T04:59:24.555Z,3.20
2023-05-11T05:02:31.366Z,3.30
2023-05-11T05:05:37.661Z,3.00
2023-05-11T05:08:43.847Z,3.20
2023-05-11T05:11:49.993Z,3.10
2023-05-11T05:14:56.846Z,3.00
2023-05-11T05:18:03.005Z,3.20
2023-05-11T05:21:09.573Z,3.10
2023-05-11T05:24:15.787Z,3.20
2023-05-11T05:27:22.138Z,3.10
2023-05-11T05:30:28.219Z,3.10
2023-05-11T05:33:34.608Z,3.20
2023-05-11T05:36:40.603Z,3.30
2023-05-11T05:39:48.533Z,3.20
2023-05-11T05:42:55.559Z,3.00
2023-05-11T05:46:01.698Z,2.70
2023-05-11T05:49:08.062Z,3.50
2023-05-11T05:52:14.454Z,3.10
2023-05-11T05:55:20.386Z,3.30
2023-05-11T05:58:27.243Z,3.30
2023-05-11T06:01:33.681Z,3.40
2023-05-11T06:04:40.423Z,3.50
2023-05-11T06:07:54.405Z,3.30
2023-05-11T06:11:09.056Z,3.30
2023-05-11T06:14:15.066Z,3.30
2023-05-11T06:17:21.250Z,3.20
2023-05-11T06:20:27.328Z,3.40
2023-05-11T06:23:33.667Z,3.40
2023-05-11T06:26:40.978Z,3.90
2023-05-11T06:29:47.647Z,3.50
2023-05-11T06:32:53.735Z,3.50
2023-05-11T06:36:01.616Z,3.20
2023-05-11T06:39:09.147Z,3.50
2023-05-11T06:42:15.749Z,3.60
2023-05-11T06:45:22.280Z,3.40
2023-05-11T06:48:30.118Z,3.30
2023-05-11T06:51:36.318Z,3.30
2023-05-11T06:54:42.811Z,3.30
2023-05-11T06:57:48.844Z,3.60
2023-05-11T07:00:55.534Z,3.20
2023-05-11T07:04:01.815Z,3.20
2023-05-11T07:07:11.517Z,3.40
2023-05-11T07:10:17.861Z,3.60
2023-05-11T07:13:24.484Z,3.30
2023-05-11T07:16:30.650Z,3.50
2023-05-11T07:19:37.306Z,3.50
2023-05-11T07:22:43.605Z,3.80
2023-05-11T07:25:50.080Z,3.30
2023-05-11T07:28:56.115Z,3.50
2023-05-11T07:32:02.542Z,3.60
2023-05-11T07:35:09.705Z,3.90
2023-05-11T07:38:16.089Z,3.60
2023-05-11T07:41:26.133Z,3.50
2023-05-11T07:44:32.313Z,3.30
2023-05-11T07:47:38.558Z,3.30
2023-05-11T07:50:45.325Z,2.80
2023-05-11T07:53:51.622Z,3.20
2023-05-11T07:56:57.892Z,3.40
2023-05-11T08:00:05.987Z,3.50
2023-05-11T08:03:13.317Z,3.10
2023-05-11T08:06:19.908Z,3.30
2023-05-11T08:09:26.195Z,3.00
2023-05-11T08:12:32.534Z,3.00
2023-05-11T08:15:38.547Z,2.80
2023-05-11T08:18:45.374Z,3.00
2023-05-11T08:21:52.194Z,3.70
2023-05-11T08:24:58.927Z,3.10
2023-05-11T08:28:05.556Z,3.40
2023-05-11T08:31:14.361Z,3.40
2023-05-11T08:34:21.389Z,3.20
2023-05-11T08:37:27.885Z,3.30
2023-05-11T08:40:34.322Z,3.30
2023-05-11T08:43:41.990Z,3.20
2023-05-11T08:46:48.695Z,2.70
2023-05-11T08:49:55.482Z,3.10
2023-05-11T08:53:01.653Z,3.40
2023-05-11T08:56:10.874Z,3.20
2023-05-11T08:59:18.853Z,3.10
2023-05-11T09:02:25.148Z,3.10
2023-05-11T09:05:31.996Z,3.20
2023-05-11T09:08:39.518Z,3.50
2023-05-11T09:11:45.666Z,3.30
2023-05-11T09:14:52.845Z,3.00
2023-05-11T09:17:59.619Z,3.00
2023-05-11T09:21:05.806Z,2.90
2023-05-11T09:24:14.248Z,3.20
2023-05-11T09:27:21.643Z,3.10
2023-05-11T09:30:28.457Z,2.80
2023-05-11T09:33:34.543Z,3.20
2023-05-11T09:36:41.064Z,3.30
2023-05-11T09:40:14.176Z,3.30
2023-05-11T09:43:21.860Z,3.30
2023-05-11T09:46:29.360Z,3.20
2023-05-11T09:49:35.984Z,3.20
2023-05-11T09:52:47.980Z,3.10
2023-05-11T09:55:56.089Z,3.10
2023-05-11T09:59:02.521Z,3.20
2023-05-11T10:02:22.964Z,3.10
2023-05-11T10:05:29.223Z,2.80
2023-05-11T10:08:36.268Z,3.10
2023-05-11T10:11:47.044Z,3.10
2023-05-11T10:14:55.896Z,2.90
2023-05-11T10:18:02.682Z,2.80
2023-05-11T10:21:09.882Z,2.40
2023-05-11T10:24:18.257Z,2.70
2023-05-11T10:27:27.240Z,2.40
2023-05-11T10:30:34.451Z,2.50
2023-05-11T10:33:41.371Z,2.40
2023-05-11T10:36:48.551Z,2.60
2023-05-11T10:39:54.987Z,2.90
2023-05-11T10:43:34.572Z,2.40
2023-05-11T10:49:59.748Z,2.60
2023-05-11T10:53:18.864Z,2.40
2023-05-11T10:56:38.195Z,2.20
2023-05-11T11:00:14.611Z,2.30
2023-05-11T11:03:20.681Z,2.10
2023-05-11T11:06:28.474Z,2.40
2023-05-11T11:09:53.258Z,2.40
2023-05-11T11:13:06.844Z,2.40
2023-05-11T11:16:16.429Z,2.50
2023-05-11T11:19:41.842Z,2.30
2023-05-11T11:22:49.141Z,2.60
2023-05-11T11:25:56.279Z,2.30
2023-05-11T11:29:15.373Z,2.40
2023-05-11T11:32:31.035Z,2.20
2023-05-11T11:35:50.241Z,2.50
2023-05-11T11:39:06.035Z,2.50
2023-05-11T11:42:13.000Z,2.10
2023-05-11T11:45:34.127Z,2.20
2023-05-11T11:48:42.586Z,2.10
2023-05-11T11:51:48.979Z,2.40
2023-05-11T11:54:56.022Z,2.40
2023-05-11T11:58:02.650Z,2.20
2023-05-11T12:01:09.126Z,2.00
2023-05-11T12:04:33.682Z,2.10
2023-05-11T12:07:44.612Z,2.40
2023-05-11T12:10:57.220Z,1.80
2023-05-11T12:14:04.922Z,2.00
2023-05-11T12:17:16.075Z,2.30
2023-05-11T12:20:23.798Z,2.10
2023-05-11T12:23:30.390Z,2.20
2023-05-11T12:26:37.293Z,2.10
2023-05-11T12:29:46.050Z,2.40
2023-05-11T12:36:02.109Z,2.20
2023-05-11T12:39:08.563Z,2.30
2023-05-11T12:42:21.605Z,2.20
2023-05-11T12:45:28.418Z,2.20
2023-05-11T12:48:34.518Z,2.60
2023-05-11T12:51:52.061Z,2.40
2023-05-11T12:55:00.779Z,2.30
2023-05-11T12:58:14.266Z,2.30
2023-05-11T13:01:26.928Z,2.40
2023-05-11T13:04:33.833Z,2.40
2023-05-11T13:07:40.284Z,2.60
2023-05-11T13:10:47.892Z,2.60
2023-05-11T13:13:55.464Z,2.40
2023-05-11T13:17:01.954Z,2.50
2023-05-11T13:20:26.866Z,2.50
2023-05-11T13:23:32.822Z,2.30
2023-05-11T13:26:38.984Z,2.30
2023-05-11T13:29:45.374Z,2.10
2023-05-11T13:32:51.820Z,2.30
2023-05-11T13:35:58.864Z,2.10
2023-05-11T13:39:07.052Z,2.50
2023-05-11T13:42:13.209Z,2.20
2023-05-11T13:45:20.129Z,2.20
2023-05-11T13:48:26.421Z,2.40
2023-05-11T13:51:33.402Z,2.30
2023-05-11T13:54:39.632Z,2.20
2023-05-11T13:57:46.005Z,2.40
2023-05-11T14:01:06.444Z,2.40
2023-05-11T14:04:13.871Z,2.40
2023-05-11T14:07:20.059Z,2.40
2023-05-11T14:10:26.399Z,2.20
2023-05-11T14:13:32.560Z,2.20
2023-05-11T14:16:38.831Z,2.40
2023-05-11T14:19:47.457Z,2.20
2023-05-11T14:22:53.690Z,2.20
2023-05-11T14:26:01.579Z,2.10
2023-05-11T14:29:07.686Z,2.20
2023-05-11T14:32:14.384Z,2.00
2023-05-11T14:35:20.776Z,2.20
2023-05-11T14:38:29.402Z,2.00
2023-05-11T14:41:35.658Z,2.00
2023-05-11T14:44:41.839Z,2.00
2023-05-11T14:47:48.233Z,2.10
2023-05-11T14:50:55.100Z,2.20
2023-05-11T14:54:01.358Z,2.20
2023-05-11T14:57:08.420Z,2.00
2023-05-11T15:00:16.876Z,2.00
2023-05-11T15:03:25.142Z,2.20
2023-05-11T15:06:31.722Z,2.40
2023-05-11T15:09:38.005Z,2.40
2023-05-11T15:12:43.929Z,2.00
2023-05-11T15:15:50.767Z,2.00
2023-05-11T15:18:57.241Z,2.40
2023-05-11T15:22:03.654Z,1.90
2023-05-11T15:25:11.654Z,2.40
2023-05-11T15:28:18.086Z,2.20
2023-05-11T15:31:24.411Z,2.40
2023-05-11T15:34:30.895Z,2.40
2023-05-11T15:37:37.072Z,2.30
2023-05-11T15:40:43.405Z,2.00
2023-05-11T15:43:49.396Z,2.20
2023-05-11T15:46:56.233Z,2.20
2023-05-11T15:50:02.442Z,2.30
2023-05-11T15:53:08.454Z,2.30
2023-05-11T15:56:14.469Z,2.30
2023-05-11T15:59:20.746Z,2.60
2023-05-11T16:02:26.750Z,2.20
2023-05-11T16:05:33.148Z,2.10
2023-05-11T16:08:39.304Z,2.10
2023-05-11T16:11:45.626Z,2.20
2023-05-11T16:14:51.917Z,2.20
2023-05-11T16:17:58.644Z,2.30
2023-05-11T16:21:04.771Z,2.30
2023-05-11T16:24:11.528Z,2.10
2023-05-11T16:27:17.723Z,2.40
2023-05-11T16:30:25.749Z,2.30
2023-05-11T16:33:32.199Z,2.40
2023-05-11T16:36:38.513Z,2.30
2023-05-11T16:39:44.698Z,2.50
2023-05-11T16:42:51.593Z,2.40
2023-05-11T16:45:58.441Z,2.30
2023-05-11T16:49:05.828Z,2.40
2023-05-11T16:52:11.902Z,2.30
2023-05-11T16:55:19.527Z,2.30
2023-05-11T16:58:25.809Z,2.40
2023-05-11T17:01:32.435Z,2.30
2023-05-11T17:04:38.525Z,2.50
2023-05-11T17:07:46.460Z,2.50
2023-05-11T17:10:52.894Z,2.60
2023-05-11T17:13:59.577Z,2.70
2023-05-11T17:17:07.592Z,2.90
2023-05-11T17:20:15.805Z,2.40
2023-05-11T17:23:22.143Z,2.80
2023-05-11T17:26:39.189Z,2.90
2023-05-11T17:29:53.480Z,2.70
2023-05-11T17:33:00.042Z,2.60
2023-05-11T17:36:07.536Z,2.80
2023-05-11T17:39:13.923Z,2.80
2023-05-11T17:42:20.151Z,2.80
2023-05-11T17:45:26.311Z,2.60
2023-05-11T17:48:32.880Z,2.40
2023-05-11T17:51:39.125Z,2.70
2023-05-11T17:54:45.201Z,2.90
2023-05-11T17:57:51.824Z,2.30
2023-05-11T18:00:57.933Z,2.80
2023-05-11T18:04:04.706Z,2.80
2023-05-11T18:07:10.917Z,2.90
2023-05-11T18:10:17.729Z,2.50
2023-05-11T18:13:24.982Z,2.90
2023-05-11T18:16:31.045Z,2.60
2023-05-11T18:19:37.573Z,2.60
2023-05-11T18:22:44.101Z,2.90
2023-05-11T18:25:50.329Z,2.20
2023-05-11T18:28:57.187Z,2.60
2023-05-11T18:32:03.261Z,2.60
2023-05-11T18:35:10.400Z,3.00
2023-05-11T18:38:17.021Z,3.10
2023-05-11T18:41:24.429Z,2.80
2023-05-11T18:44:30.622Z,2.30
2023-05-11T18:47:37.634Z,2.60
2023-05-11T18:50:43.626Z,2.50
2023-05-11T18:53:49.951Z,2.50
2023-05-11T18:56:56.197Z,2.60
2023-05-11T19:00:02.749Z,2.70
2023-05-11T19:03:09.720Z,2.90
2023-05-11T19:06:16.102Z,2.90
2023-05-11T19:09:22.453Z,3.10
2023-05-11T19:12:29.020Z,3.30
2023-05-11T19:15:35.113Z,3.30
2023-05-11T19:18:41.492Z,3.10
2023-05-11T19:21:48.982Z,2.70
2023-05-11T19:24:55.524Z,3.50
2023-05-11T19:28:01.937Z,3.10
2023-05-11T19:31:08.988Z,3.30
2023-05-11T19:34:15.045Z,3.20
2023-05-11T19:37:21.732Z,3.60
2023-05-11T19:40:45.463Z,3.30
2023-05-11T19:43:52.895Z,3.00
2023-05-11T19:46:59.419Z,3.20
2023-05-11T19:50:07.965Z,3.00
2023-05-11T19:53:14.673Z,3.50
2023-05-11T19:56:21.166Z,3.30
2023-05-11T19:59:32.926Z,3.10
2023-05-11T20:02:39.775Z,3.30
2023-05-11T20:05:46.533Z,3.50
2023-05-11T20:08:53.158Z,3.20
2023-05-11T20:11:59.390Z,3.30
2023-05-11T20:15:05.916Z,3.30
2023-05-11T20:18:12.096Z,3.50
2023-05-11T20:21:18.079Z,3.40
2023-05-11T20:24:24.427Z,3.70
2023-05-11T20:27:30.679Z,3.50
2023-05-11T20:30:37.358Z,4.00
2023-05-11T20:36:54.461Z,3.30
2023-05-11T20:40:01.087Z,3.30
2023-05-11T20:43:07.520Z,3.20
2023-05-11T20:46:15.328Z,3.30
2023-05-11T20:49:37.504Z,3.20
2023-05-11T20:52:45.102Z,3.40
2023-05-11T20:55:51.918Z,3.20
2023-05-11T20:58:58.498Z,3.40
2023-05-11T21:02:04.647Z,3.40
2023-05-11T21:05:11.891Z,2.90
2023-05-11T21:08:18.091Z,3.20
2023-05-11T21:11:24.235Z,3.40
2023-05-11T21:14:30.363Z,2.90
2023-05-11T21:17:37.098Z,3.30
2023-05-11T21:20:43.595Z,3.20
2023-05-11T21:23:49.570Z,3.40
2023-05-11T21:26:55.930Z,3.20
2023-05-11T21:30:02.951Z,3.50
2023-05-11T21:33:09.183Z,3.30
2023-05-11T21:36:15.737Z,3.30
2023-05-11T21:39:21.879Z,3.60
2023-05-11T21:42:34.168Z,3.20
2023-05-11T21:45:40.651Z,3.20
2023-05-11T21:48:47.223Z,3.30
2023-05-11T21:51:53.567Z,3.20
2023-05-11T21:55:01.157Z,3.10
2023-05-11T21:58:07.205Z,3.20
2023-05-11T22:01:14.002Z,3.10
2023-05-11T22:04:20.123Z,3.20
2023-05-11T22:07:26.322Z,3.20
2023-05-11T22:10:32.535Z,3.00
2023-05-11T22:13:38.728Z,3.20
2023-05-11T22:16:45.147Z,3.10
2023-05-11T22:19:51.509Z,3.10
2023-05-11T22:22:57.770Z,3.30
2023-05-11T22:26:04.755Z,3.20
2023-05-11T22:29:11.194Z,3.10
2023-05-11T22:32:17.435Z,3.40
2023-05-11T22:35:23.670Z,3.20
2023-05-11T22:38:30.410Z,3.10
2023-05-11T22:41:36.997Z,3.30
2023-05-11T22:44:43.366Z,3.20
2023-05-11T22:47:49.563Z,3.20
2023-05-11T22:50:56.558Z,3.40
2023-05-11T22:54:03.546Z,3.10
2023-05-11T22:57:11.742Z,3.10
2023-05-11T23:00:18.822Z,3.30
2023-05-11T23:03:25.820Z,3.30
2023-05-11T23:06:32.713Z,3.20
2023-05-11T23:09:39.014Z,3.80
2023-05-11T23:12:45.108Z,3.10
2023-05-11T23:15:51.574Z,3.60
2023-05-11T23:18:58.150Z,3.50
2023-05-11T23:22:04.428Z,3.10
2023-05-11T23:25:12.179Z,3.40
2023-05-11T23:28:18.374Z,3.40
2023-05-11T23:31:25.180Z,3.50
2023-05-11T23:34:31.520Z,3.30
2023-05-11T23:37:38.072Z,3.40
2023-05-11T23:40:44.666Z,3.70
2023-05-11T23:43:50.856Z,3.20
2023-05-11T23:46:57.078Z,3.40
2023-05-11T23:50:03.237Z,3.30
2023-05-11T23:53:09.416Z,3.50
2023-05-11T23:56:15.964Z,3.70
2023-05-11T23:59:22.304Z,3.80
